sensor_id;sensor_type;location;lat;lon;timestamp;temperature;humidity
62154;DHT22;48140;45.486;9.226;2022-10-16T00:01:20;18.80;89.30
62154;DHT22;48140;45.486;9.226;2022-10-16T00:03:46;18.80;89.10
62154;DHT22;48140;45.486;9.226;2022-10-16T00:06:12;18.80;89.10
62154;DHT22;48140;45.486;9.226;2022-10-16T00:08:38;18.90;89.00
62154;DHT22;48140;45.486;9.226;2022-10-16T00:11:05;18.80;89.10
62154;DHT22;48140;45.486;9.226;2022-10-16T00:13:31;18.80;89.20
62154;DHT22;48140;45.486;9.226;2022-10-16T00:15:57;18.80;89.20
62154;DHT22;48140;45.486;9.226;2022-10-16T00:18:23;18.90;89.20
62154;DHT22;48140;45.486;9.226;2022-10-16T00:20:49;18.80;89.40
62154;DHT22;48140;45.486;9.226;2022-10-16T00:23:15;18.80;89.30
62154;DHT22;48140;45.486;9.226;2022-10-16T00:25:40;18.80;89.20
62154;DHT22;48140;45.486;9.226;2022-10-16T00:28:06;18.80;89.30
62154;DHT22;48140;45.486;9.226;2022-10-16T00:30:31;18.80;89.30
62154;DHT22;48140;45.486;9.226;2022-10-16T00:32:57;18.80;89.30
62154;DHT22;48140;45.486;9.226;2022-10-16T00:35:22;18.80;89.40
62154;DHT22;48140;45.486;9.226;2022-10-16T00:37:48;18.80;89.70
62154;DHT22;48140;45.486;9.226;2022-10-16T00:40:13;18.80;89.50
62154;DHT22;48140;45.486;9.226;2022-10-16T00:42:39;18.70;89.70
62154;DHT22;48140;45.486;9.226;2022-10-16T00:45:05;18.70;89.50
62154;DHT22;48140;45.486;9.226;2022-10-16T00:47:41;18.70;89.50
62154;DHT22;48140;45.486;9.226;2022-10-16T00:50:26;18.70;89.40
62154;DHT22;48140;45.486;9.226;2022-10-16T00:52:55;18.70;89.40
62154;DHT22;48140;45.486;9.226;2022-10-16T00:55:21;18.80;89.60
62154;DHT22;48140;45.486;9.226;2022-10-16T00:57:47;18.70;89.40
62154;DHT22;48140;45.486;9.226;2022-10-16T01:00:15;18.80;89.50
62154;DHT22;48140;45.486;9.226;2022-10-16T01:02:41;18.80;89.20
62154;DHT22;48140;45.486;9.226;2022-10-16T01:05:06;18.80;89.20
62154;DHT22;48140;45.486;9.226;2022-10-16T01:10:03;18.80;90.00
62154;DHT22;48140;45.486;9.226;2022-10-16T01:12:45;18.70;90.00
62154;DHT22;48140;45.486;9.226;2022-10-16T01:15:16;18.70;90.00
62154;DHT22;48140;45.486;9.226;2022-10-16T01:28:18;18.70;90.20
62154;DHT22;48140;45.486;9.226;2022-10-16T01:30:46;18.70;90.40
62154;DHT22;48140;45.486;9.226;2022-10-16T01:35:39;18.70;90.40
62154;DHT22;48140;45.486;9.226;2022-10-16T01:38:28;18.70;90.50
62154;DHT22;48140;45.486;9.226;2022-10-16T01:40:57;18.70;90.60
62154;DHT22;48140;45.486;9.226;2022-10-16T01:43:28;18.60;90.70
62154;DHT22;48140;45.486;9.226;2022-10-16T01:45:54;18.60;90.70
62154;DHT22;48140;45.486;9.226;2022-10-16T01:48:20;18.60;90.80
62154;DHT22;48140;45.486;9.226;2022-10-16T01:50:52;18.60;90.70
62154;DHT22;48140;45.486;9.226;2022-10-16T01:53:18;18.60;90.70
62154;DHT22;48140;45.486;9.226;2022-10-16T01:55:46;18.60;90.90
62154;DHT22;48140;45.486;9.226;2022-10-16T01:58:12;18.60;90.90
62154;DHT22;48140;45.486;9.226;2022-10-16T02:00:39;18.60;91.00
62154;DHT22;48140;45.486;9.226;2022-10-16T02:03:06;18.60;91.10
62154;DHT22;48140;45.486;9.226;2022-10-16T02:05:45;18.50;91.10
62154;DHT22;48140;45.486;9.226;2022-10-16T02:08:11;18.50;91.20
62154;DHT22;48140;45.486;9.226;2022-10-16T02:10:37;18.50;91.10
62154;DHT22;48140;45.486;9.226;2022-10-16T02:13:04;18.50;91.20
62154;DHT22;48140;45.486;9.226;2022-10-16T02:15:34;18.50;91.20
62154;DHT22;48140;45.486;9.226;2022-10-16T02:18:01;18.50;91.40
62154;DHT22;48140;45.486;9.226;2022-10-16T02:20:27;18.50;91.40
62154;DHT22;48140;45.486;9.226;2022-10-16T02:22:53;18.50;91.50
62154;DHT22;48140;45.486;9.226;2022-10-16T02:28:19;18.50;91.50
62154;DHT22;48140;45.486;9.226;2022-10-16T02:30:52;18.50;91.50
62154;DHT22;48140;45.486;9.226;2022-10-16T02:33:20;18.50;91.70
62154;DHT22;48140;45.486;9.226;2022-10-16T02:35:47;18.50;91.70
62154;DHT22;48140;45.486;9.226;2022-10-16T02:38:14;18.50;91.80
62154;DHT22;48140;45.486;9.226;2022-10-16T02:40:40;18.40;91.80
62154;DHT22;48140;45.486;9.226;2022-10-16T02:43:06;18.40;92.00
62154;DHT22;48140;45.486;9.226;2022-10-16T02:45:31;18.40;91.80
62154;DHT22;48140;45.486;9.226;2022-10-16T02:47:57;18.40;91.90
62154;DHT22;48140;45.486;9.226;2022-10-16T02:50:23;18.40;91.90
62154;DHT22;48140;45.486;9.226;2022-10-16T02:52:50;18.40;92.00
62154;DHT22;48140;45.486;9.226;2022-10-16T02:55:16;18.40;92.00
62154;DHT22;48140;45.486;9.226;2022-10-16T02:57:41;18.40;92.10
62154;DHT22;48140;45.486;9.226;2022-10-16T03:00:08;18.40;92.10
62154;DHT22;48140;45.486;9.226;2022-10-16T03:02:34;18.40;92.10
62154;DHT22;48140;45.486;9.226;2022-10-16T03:05:00;18.40;92.20
62154;DHT22;48140;45.486;9.226;2022-10-16T03:07:25;18.40;92.60
62154;DHT22;48140;45.486;9.226;2022-10-16T03:09:51;18.30;92.30
62154;DHT22;48140;45.486;9.226;2022-10-16T03:12:16;18.30;92.30
62154;DHT22;48140;45.486;9.226;2022-10-16T03:14:42;18.30;92.30
62154;DHT22;48140;45.486;9.226;2022-10-16T03:17:07;18.30;92.40
62154;DHT22;48140;45.486;9.226;2022-10-16T03:19:33;18.40;92.20
62154;DHT22;48140;45.486;9.226;2022-10-16T03:21:58;18.30;92.40
62154;DHT22;48140;45.486;9.226;2022-10-16T03:24:24;18.30;92.50
62154;DHT22;48140;45.486;9.226;2022-10-16T03:26:50;18.30;92.40
62154;DHT22;48140;45.486;9.226;2022-10-16T03:29:15;18.30;92.50
62154;DHT22;48140;45.486;9.226;2022-10-16T03:31:41;18.30;92.40
62154;DHT22;48140;45.486;9.226;2022-10-16T03:34:06;18.30;92.50
62154;DHT22;48140;45.486;9.226;2022-10-16T03:36:32;18.30;92.50
62154;DHT22;48140;45.486;9.226;2022-10-16T03:38:57;18.30;92.30
62154;DHT22;48140;45.486;9.226;2022-10-16T03:41:23;18.30;92.40
62154;DHT22;48140;45.486;9.226;2022-10-16T03:43:48;18.30;92.50
62154;DHT22;48140;45.486;9.226;2022-10-16T03:46:14;18.20;92.50
62154;DHT22;48140;45.486;9.226;2022-10-16T03:48:40;18.30;92.60
62154;DHT22;48140;45.486;9.226;2022-10-16T03:51:05;18.30;92.60
62154;DHT22;48140;45.486;9.226;2022-10-16T03:53:31;18.30;92.60
62154;DHT22;48140;45.486;9.226;2022-10-16T03:55:56;18.30;92.50
62154;DHT22;48140;45.486;9.226;2022-10-16T03:58:22;18.30;92.40
62154;DHT22;48140;45.486;9.226;2022-10-16T04:00:48;18.40;92.40
62154;DHT22;48140;45.486;9.226;2022-10-16T04:03:13;18.40;92.30
62154;DHT22;48140;45.486;9.226;2022-10-16T04:05:39;18.30;92.30
62154;DHT22;48140;45.486;9.226;2022-10-16T04:08:05;18.30;92.50
62154;DHT22;48140;45.486;9.226;2022-10-16T04:10:30;18.30;92.50
62154;DHT22;48140;45.486;9.226;2022-10-16T04:12:56;18.30;92.60
62154;DHT22;48140;45.486;9.226;2022-10-16T04:15:22;18.30;92.50
62154;DHT22;48140;45.486;9.226;2022-10-16T04:17:47;18.30;92.60
62154;DHT22;48140;45.486;9.226;2022-10-16T04:20:13;18.30;92.60
62154;DHT22;48140;45.486;9.226;2022-10-16T04:22:39;18.30;92.80
62154;DHT22;48140;45.486;9.226;2022-10-16T04:25:04;18.30;92.90
62154;DHT22;48140;45.486;9.226;2022-10-16T04:27:30;18.20;92.70
62154;DHT22;48140;45.486;9.226;2022-10-16T04:29:59;18.30;93.00
62154;DHT22;48140;45.486;9.226;2022-10-16T04:32:24;18.30;93.00
62154;DHT22;48140;45.486;9.226;2022-10-16T04:34:51;18.30;92.90
62154;DHT22;48140;45.486;9.226;2022-10-16T04:37:16;18.30;93.00
62154;DHT22;48140;45.486;9.226;2022-10-16T04:39:42;18.30;93.00
62154;DHT22;48140;45.486;9.226;2022-10-16T04:42:08;18.30;93.00
62154;DHT22;48140;45.486;9.226;2022-10-16T04:44:33;18.30;93.10
62154;DHT22;48140;45.486;9.226;2022-10-16T04:46:59;18.30;93.20
62154;DHT22;48140;45.486;9.226;2022-10-16T04:49:24;18.30;93.20
62154;DHT22;48140;45.486;9.226;2022-10-16T04:51:50;18.30;93.20
62154;DHT22;48140;45.486;9.226;2022-10-16T04:54:15;18.20;93.20
62154;DHT22;48140;45.486;9.226;2022-10-16T04:56:41;18.20;93.20
62154;DHT22;48140;45.486;9.226;2022-10-16T04:59:16;18.10;93.30
62154;DHT22;48140;45.486;9.226;2022-10-16T05:01:41;18.20;93.50
62154;DHT22;48140;45.486;9.226;2022-10-16T05:04:07;18.20;93.50
62154;DHT22;48140;45.486;9.226;2022-10-16T05:09:08;18.20;93.60
62154;DHT22;48140;45.486;9.226;2022-10-16T05:11:34;18.20;93.50
62154;DHT22;48140;45.486;9.226;2022-10-16T05:13:59;18.20;93.60
62154;DHT22;48140;45.486;9.226;2022-10-16T05:16:25;18.10;93.60
62154;DHT22;48140;45.486;9.226;2022-10-16T05:18:51;18.10;93.80
62154;DHT22;48140;45.486;9.226;2022-10-16T05:21:16;18.10;94.00
62154;DHT22;48140;45.486;9.226;2022-10-16T05:23:42;18.10;93.90
62154;DHT22;48140;45.486;9.226;2022-10-16T05:26:07;18.10;94.00
62154;DHT22;48140;45.486;9.226;2022-10-16T05:28:33;18.10;94.00
62154;DHT22;48140;45.486;9.226;2022-10-16T05:30:59;18.10;94.20
62154;DHT22;48140;45.486;9.226;2022-10-16T05:33:28;18.10;94.30
62154;DHT22;48140;45.486;9.226;2022-10-16T05:35:54;18.10;94.30
62154;DHT22;48140;45.486;9.226;2022-10-16T05:38:20;18.10;94.20
62154;DHT22;48140;45.486;9.226;2022-10-16T05:40:51;18.10;94.20
62154;DHT22;48140;45.486;9.226;2022-10-16T05:43:18;18.10;94.30
62154;DHT22;48140;45.486;9.226;2022-10-16T05:45:43;18.10;94.30
62154;DHT22;48140;45.486;9.226;2022-10-16T05:48:09;18.10;94.40
62154;DHT22;48140;45.486;9.226;2022-10-16T05:50:34;18.10;94.50
62154;DHT22;48140;45.486;9.226;2022-10-16T05:53:00;18.00;94.50
62154;DHT22;48140;45.486;9.226;2022-10-16T05:55:25;18.00;94.50
62154;DHT22;48140;45.486;9.226;2022-10-16T05:57:53;18.10;94.40
62154;DHT22;48140;45.486;9.226;2022-10-16T06:00:19;18.10;94.50
62154;DHT22;48140;45.486;9.226;2022-10-16T06:02:44;18.10;94.50
62154;DHT22;48140;45.486;9.226;2022-10-16T06:05:10;18.10;94.50
62154;DHT22;48140;45.486;9.226;2022-10-16T06:07:35;18.10;94.50
62154;DHT22;48140;45.486;9.226;2022-10-16T06:10:01;18.10;94.50
62154;DHT22;48140;45.486;9.226;2022-10-16T06:12:28;18.10;94.60
62154;DHT22;48140;45.486;9.226;2022-10-16T06:14:53;18.10;94.30
62154;DHT22;48140;45.486;9.226;2022-10-16T06:17:19;18.10;94.30
62154;DHT22;48140;45.486;9.226;2022-10-16T06:19:44;18.10;94.40
62154;DHT22;48140;45.486;9.226;2022-10-16T06:22:10;18.10;94.40
62154;DHT22;48140;45.486;9.226;2022-10-16T06:27:11;18.20;94.30
62154;DHT22;48140;45.486;9.226;2022-10-16T06:32:12;18.20;94.60
62154;DHT22;48140;45.486;9.226;2022-10-16T06:34:37;18.20;94.30
62154;DHT22;48140;45.486;9.226;2022-10-16T06:37:05;18.20;94.10
62154;DHT22;48140;45.486;9.226;2022-10-16T06:39:30;18.30;94.10
62154;DHT22;48140;45.486;9.226;2022-10-16T06:41:56;18.30;94.00
62154;DHT22;48140;45.486;9.226;2022-10-16T06:44:21;18.40;94.00
62154;DHT22;48140;45.486;9.226;2022-10-16T06:46:47;18.40;94.20
62154;DHT22;48140;45.486;9.226;2022-10-16T06:49:12;18.40;94.10
62154;DHT22;48140;45.486;9.226;2022-10-16T06:51:38;18.40;94.20
62154;DHT22;48140;45.486;9.226;2022-10-16T06:54:06;18.40;94.00
62154;DHT22;48140;45.486;9.226;2022-10-16T06:56:32;18.50;93.90
62154;DHT22;48140;45.486;9.226;2022-10-16T06:58:58;18.40;93.80
62154;DHT22;48140;45.486;9.226;2022-10-16T07:01:24;18.50;93.70
62154;DHT22;48140;45.486;9.226;2022-10-16T07:03:50;18.50;93.50
62154;DHT22;48140;45.486;9.226;2022-10-16T07:06:16;18.50;93.30
62154;DHT22;48140;45.486;9.226;2022-10-16T07:08:44;18.50;93.20
62154;DHT22;48140;45.486;9.226;2022-10-16T07:11:11;18.60;93.20
62154;DHT22;48140;45.486;9.226;2022-10-16T07:13:37;18.50;93.20
62154;DHT22;48140;45.486;9.226;2022-10-16T07:16:07;18.60;93.10
62154;DHT22;48140;45.486;9.226;2022-10-16T07:18:32;18.60;93.10
62154;DHT22;48140;45.486;9.226;2022-10-16T07:21:12;18.60;93.00
62154;DHT22;48140;45.486;9.226;2022-10-16T07:26:12;18.80;92.70
62154;DHT22;48140;45.486;9.226;2022-10-16T07:28:38;18.80;92.50
62154;DHT22;48140;45.486;9.226;2022-10-16T07:31:06;18.80;92.50
62154;DHT22;48140;45.486;9.226;2022-10-16T07:33:32;18.90;92.50
62154;DHT22;48140;45.486;9.226;2022-10-16T07:35:58;18.90;92.30
62154;DHT22;48140;45.486;9.226;2022-10-16T07:38:24;19.00;92.30
62154;DHT22;48140;45.486;9.226;2022-10-16T07:40:59;19.00;92.10
62154;DHT22;48140;45.486;9.226;2022-10-16T07:43:25;19.10;91.80
62154;DHT22;48140;45.486;9.226;2022-10-16T07:45:51;19.00;91.80
62154;DHT22;48140;45.486;9.226;2022-10-16T07:48:17;19.20;91.60
62154;DHT22;48140;45.486;9.226;2022-10-16T07:50:43;19.30;91.50
62154;DHT22;48140;45.486;9.226;2022-10-16T07:53:08;19.30;91.30
62154;DHT22;48140;45.486;9.226;2022-10-16T07:58:09;19.50;90.90
62154;DHT22;48140;45.486;9.226;2022-10-16T08:00:35;19.40;90.80
62154;DHT22;48140;45.486;9.226;2022-10-16T08:28:55;19.80;89.90
62154;DHT22;48140;45.486;9.226;2022-10-16T08:31:21;19.90;88.40
62154;DHT22;48140;45.486;9.226;2022-10-16T08:33:46;19.90;88.50
62154;DHT22;48140;45.486;9.226;2022-10-16T08:36:13;20.00;88.50
62154;DHT22;48140;45.486;9.226;2022-10-16T08:38:38;20.10;87.50
62154;DHT22;48140;45.486;9.226;2022-10-16T08:48:53;20.50;86.70
62154;DHT22;48140;45.486;9.226;2022-10-16T08:59:06;20.80;84.10
62154;DHT22;48140;45.486;9.226;2022-10-16T09:01:43;20.90;83.70
62154;DHT22;48140;45.486;9.226;2022-10-16T09:22:29;21.10;82.00
62154;DHT22;48140;45.486;9.226;2022-10-16T09:37:54;21.10;81.40
62154;DHT22;48140;45.486;9.226;2022-10-16T09:40:26;21.00;82.00
62154;DHT22;48140;45.486;9.226;2022-10-16T09:45:28;21.10;82.10
62154;DHT22;48140;45.486;9.226;2022-10-16T09:47:54;21.20;81.70
62154;DHT22;48140;45.486;9.226;2022-10-16T09:50:28;21.30;80.60
62154;DHT22;48140;45.486;9.226;2022-10-16T09:53:04;21.40;80.50
62154;DHT22;48140;45.486;9.226;2022-10-16T09:55:30;21.50;79.00
62154;DHT22;48140;45.486;9.226;2022-10-16T09:57:55;21.50;78.80
62154;DHT22;48140;45.486;9.226;2022-10-16T10:00:22;21.50;78.60
62154;DHT22;48140;45.486;9.226;2022-10-16T10:02:48;21.60;78.60
62154;DHT22;48140;45.486;9.226;2022-10-16T10:05:21;21.60;78.80
62154;DHT22;48140;45.486;9.226;2022-10-16T10:07:53;21.80;77.30
62154;DHT22;48140;45.486;9.226;2022-10-16T10:10:20;21.80;77.20
62154;DHT22;48140;45.486;9.226;2022-10-16T10:12:46;21.90;77.40
62154;DHT22;48140;45.486;9.226;2022-10-16T10:15:12;22.00;77.30
62154;DHT22;48140;45.486;9.226;2022-10-16T10:17:54;22.10;76.80
62154;DHT22;48140;45.486;9.226;2022-10-16T10:20:25;22.30;76.40
62154;DHT22;48140;45.486;9.226;2022-10-16T10:22:50;22.40;76.00
62154;DHT22;48140;45.486;9.226;2022-10-16T10:25:19;22.50;74.00
62154;DHT22;48140;45.486;9.226;2022-10-16T10:38:20;22.70;74.10
62154;DHT22;48140;45.486;9.226;2022-10-16T10:45:56;23.20;72.00
62154;DHT22;48140;45.486;9.226;2022-10-16T10:48:27;23.40;69.90
62154;DHT22;48140;45.486;9.226;2022-10-16T11:14:29;23.60;71.50
62154;DHT22;48140;45.486;9.226;2022-10-16T11:16:58;23.70;71.10
62154;DHT22;48140;45.486;9.226;2022-10-16T11:22:13;24.20;66.90
62154;DHT22;48140;45.486;9.226;2022-10-16T11:27:08;24.70;64.80
62154;DHT22;48140;45.486;9.226;2022-10-16T11:29:35;24.90;63.20
62154;DHT22;48140;45.486;9.226;2022-10-16T11:32:06;25.20;64.40
62154;DHT22;48140;45.486;9.226;2022-10-16T11:34:38;25.40;61.40
62154;DHT22;48140;45.486;9.226;2022-10-16T11:39:33;25.30;61.30
62154;DHT22;48140;45.486;9.226;2022-10-16T11:49:39;25.80;60.70
62154;DHT22;48140;45.486;9.226;2022-10-16T11:54:35;25.90;54.70
62154;DHT22;48140;45.486;9.226;2022-10-16T11:57:08;26.10;54.40
62154;DHT22;48140;45.486;9.226;2022-10-16T11:59:47;26.00;55.90
62154;DHT22;48140;45.486;9.226;2022-10-16T12:07:32;26.70;54.40
62154;DHT22;48140;45.486;9.226;2022-10-16T12:12:45;28.10;49.00
62154;DHT22;48140;45.486;9.226;2022-10-16T12:15:19;28.10;47.70
62154;DHT22;48140;45.486;9.226;2022-10-16T12:17:44;27.90;47.80
62154;DHT22;48140;45.486;9.226;2022-10-16T12:22:47;28.80;46.90
62154;DHT22;48140;45.486;9.226;2022-10-16T12:25:20;29.40;44.80
62154;DHT22;48140;45.486;9.226;2022-10-16T12:27:52;30.10;43.80
62154;DHT22;48140;45.486;9.226;2022-10-16T12:30:21;30.50;43.20
62154;DHT22;48140;45.486;9.226;2022-10-16T12:32:53;30.80;40.70
62154;DHT22;48140;45.486;9.226;2022-10-16T12:35:20;30.80;40.80
62154;DHT22;48140;45.486;9.226;2022-10-16T12:37:46;30.80;40.40
62154;DHT22;48140;45.486;9.226;2022-10-16T12:40:22;30.90;40.30
62154;DHT22;48140;45.486;9.226;2022-10-16T12:42:49;30.90;39.30
62154;DHT22;48140;45.486;9.226;2022-10-16T12:47:50;30.60;39.90
62154;DHT22;48140;45.486;9.226;2022-10-16T12:50:23;30.70;40.20
62154;DHT22;48140;45.486;9.226;2022-10-16T12:52:48;30.80;39.50
62154;DHT22;48140;45.486;9.226;2022-10-16T12:55:18;30.80;39.70
62154;DHT22;48140;45.486;9.226;2022-10-16T13:00:32;31.50;38.60
62154;DHT22;48140;45.486;9.226;2022-10-16T13:13:35;31.00;37.90
62154;DHT22;48140;45.486;9.226;2022-10-16T13:18:43;31.90;35.90
62154;DHT22;48140;45.486;9.226;2022-10-16T13:21:30;31.80;36.30
62154;DHT22;48140;45.486;9.226;2022-10-16T13:27:33;31.70;37.30
62154;DHT22;48140;45.486;9.226;2022-10-16T13:29:39;31.90;36.10
62154;DHT22;48140;45.486;9.226;2022-10-16T13:32:07;31.90;35.60
62154;DHT22;48140;45.486;9.226;2022-10-16T13:34:41;31.90;35.90
62154;DHT22;48140;45.486;9.226;2022-10-16T13:37:15;32.10;36.00
62154;DHT22;48140;45.486;9.226;2022-10-16T13:39:41;31.50;36.30
62154;DHT22;48140;45.486;9.226;2022-10-16T13:42:10;30.70;38.20
62154;DHT22;48140;45.486;9.226;2022-10-16T13:44:48;30.40;39.50
62154;DHT22;48140;45.486;9.226;2022-10-16T13:47:18;30.10;40.30
62154;DHT22;48140;45.486;9.226;2022-10-16T13:49:44;29.90;41.80
62154;DHT22;48140;45.486;9.226;2022-10-16T13:52:20;30.00;40.20
62154;DHT22;48140;45.486;9.226;2022-10-16T13:54:46;29.70;40.00
62154;DHT22;48140;45.486;9.226;2022-10-16T13:57:15;29.20;41.30
62154;DHT22;48140;45.486;9.226;2022-10-16T13:59:41;29.10;41.20
62154;DHT22;48140;45.486;9.226;2022-10-16T14:04:45;29.10;41.50
62154;DHT22;48140;45.486;9.226;2022-10-16T14:07:14;28.50;42.90
62154;DHT22;48140;45.486;9.226;2022-10-16T14:09:41;28.80;43.30
62154;DHT22;48140;45.486;9.226;2022-10-16T14:12:08;29.30;42.70
62154;DHT22;48140;45.486;9.226;2022-10-16T14:14:39;29.70;40.60
62154;DHT22;48140;45.486;9.226;2022-10-16T14:17:05;29.90;41.80
62154;DHT22;48140;45.486;9.226;2022-10-16T14:19:31;30.60;39.30
62154;DHT22;48140;45.486;9.226;2022-10-16T14:21:57;30.70;38.70
62154;DHT22;48140;45.486;9.226;2022-10-16T14:26:55;31.00;39.80
62154;DHT22;48140;45.486;9.226;2022-10-16T14:29:21;30.90;38.80
62154;DHT22;48140;45.486;9.226;2022-10-16T14:32:01;30.70;38.00
62154;DHT22;48140;45.486;9.226;2022-10-16T14:34:31;30.00;39.10
62154;DHT22;48140;45.486;9.226;2022-10-16T14:37:02;29.90;39.70
62154;DHT22;48140;45.486;9.226;2022-10-16T14:39:32;29.60;40.80
62154;DHT22;48140;45.486;9.226;2022-10-16T14:41:58;29.60;41.10
62154;DHT22;48140;45.486;9.226;2022-10-16T14:44:26;29.30;41.70
62154;DHT22;48140;45.486;9.226;2022-10-16T14:46:52;28.80;43.20
62154;DHT22;48140;45.486;9.226;2022-10-16T14:49:18;28.90;42.80
62154;DHT22;48140;45.486;9.226;2022-10-16T14:51:47;29.10;43.60
62154;DHT22;48140;45.486;9.226;2022-10-16T14:54:14;29.40;42.00
62154;DHT22;48140;45.486;9.226;2022-10-16T14:59:09;29.30;41.40
62154;DHT22;48140;45.486;9.226;2022-10-16T15:01:38;29.10;42.20
62154;DHT22;48140;45.486;9.226;2022-10-16T15:04:04;29.10;42.30
62154;DHT22;48140;45.486;9.226;2022-10-16T15:06:29;29.40;42.60
62154;DHT22;48140;45.486;9.226;2022-10-16T15:08:55;29.50;41.30
62154;DHT22;48140;45.486;9.226;2022-10-16T15:11:20;29.60;41.60
62154;DHT22;48140;45.486;9.226;2022-10-16T15:13:46;29.60;41.00
62154;DHT22;48140;45.486;9.226;2022-10-16T15:16:12;29.50;41.20
62154;DHT22;48140;45.486;9.226;2022-10-16T15:18:38;29.40;41.50
62154;DHT22;48140;45.486;9.226;2022-10-16T15:21:04;28.10;43.10
62154;DHT22;48140;45.486;9.226;2022-10-16T15:23:29;27.50;44.90
62154;DHT22;48140;45.486;9.226;2022-10-16T15:25:55;27.40;47.10
62154;DHT22;48140;45.486;9.226;2022-10-16T15:28:21;27.40;46.40
62154;DHT22;48140;45.486;9.226;2022-10-16T15:30:51;27.50;46.50
62154;DHT22;48140;45.486;9.226;2022-10-16T15:33:18;27.70;46.40
62154;DHT22;48140;45.486;9.226;2022-10-16T15:35:47;27.70;46.40
62154;DHT22;48140;45.486;9.226;2022-10-16T15:38:13;27.40;46.00
62154;DHT22;48140;45.486;9.226;2022-10-16T15:40:39;27.50;46.30
62154;DHT22;48140;45.486;9.226;2022-10-16T15:43:05;27.50;45.90
62154;DHT22;48140;45.486;9.226;2022-10-16T15:45:31;27.50;46.20
62154;DHT22;48140;45.486;9.226;2022-10-16T15:47:56;27.50;47.30
62154;DHT22;48140;45.486;9.226;2022-10-16T15:50:22;27.30;48.30
62154;DHT22;48140;45.486;9.226;2022-10-16T15:52:48;27.30;48.30
62154;DHT22;48140;45.486;9.226;2022-10-16T15:55:14;27.20;47.90
62154;DHT22;48140;45.486;9.226;2022-10-16T15:57:40;27.00;48.40
62154;DHT22;48140;45.486;9.226;2022-10-16T16:00:08;26.80;48.90
62154;DHT22;48140;45.486;9.226;2022-10-16T16:02:34;26.50;48.80
62154;DHT22;48140;45.486;9.226;2022-10-16T16:05:00;26.20;51.30
62154;DHT22;48140;45.486;9.226;2022-10-16T16:07:26;26.00;52.20
62154;DHT22;48140;45.486;9.226;2022-10-16T16:09:52;25.80;53.30
62154;DHT22;48140;45.486;9.226;2022-10-16T16:12:18;25.70;53.30
62154;DHT22;48140;45.486;9.226;2022-10-16T16:14:44;25.40;54.00
62154;DHT22;48140;45.486;9.226;2022-10-16T16:17:11;25.20;56.20
62154;DHT22;48140;45.486;9.226;2022-10-16T16:19:36;25.00;57.50
62154;DHT22;48140;45.486;9.226;2022-10-16T16:22:02;24.80;58.50
62154;DHT22;48140;45.486;9.226;2022-10-16T16:24:30;24.50;58.40
62154;DHT22;48140;45.486;9.226;2022-10-16T16:26:56;24.30;59.40
62154;DHT22;48140;45.486;9.226;2022-10-16T16:29:23;24.00;61.00
62154;DHT22;48140;45.486;9.226;2022-10-16T16:31:48;23.90;62.80
62154;DHT22;48140;45.486;9.226;2022-10-16T16:34:14;23.70;64.10
62154;DHT22;48140;45.486;9.226;2022-10-16T16:36:50;23.60;65.60
62154;DHT22;48140;45.486;9.226;2022-10-16T16:39:16;23.40;64.60
62154;DHT22;48140;45.486;9.226;2022-10-16T16:41:41;23.20;65.10
62154;DHT22;48140;45.486;9.226;2022-10-16T16:44:12;23.10;65.50
62154;DHT22;48140;45.486;9.226;2022-10-16T16:46:38;23.00;65.90
62154;DHT22;48140;45.486;9.226;2022-10-16T16:49:05;22.90;67.20
62154;DHT22;48140;45.486;9.226;2022-10-16T16:51:31;22.80;67.40
62154;DHT22;48140;45.486;9.226;2022-10-16T16:53:56;22.80;69.40
62154;DHT22;48140;45.486;9.226;2022-10-16T16:56:23;22.70;70.40
62154;DHT22;48140;45.486;9.226;2022-10-16T16:58:49;22.70;70.60
62154;DHT22;48140;45.486;9.226;2022-10-16T17:01:14;22.60;70.80
62154;DHT22;48140;45.486;9.226;2022-10-16T17:03:41;22.50;71.60
62154;DHT22;48140;45.486;9.226;2022-10-16T17:06:09;22.50;71.40
62154;DHT22;48140;45.486;9.226;2022-10-16T17:08:35;22.50;71.70
62154;DHT22;48140;45.486;9.226;2022-10-16T17:11:00;22.40;71.50
62154;DHT22;48140;45.486;9.226;2022-10-16T17:13:28;22.30;71.40
62154;DHT22;48140;45.486;9.226;2022-10-16T17:15:54;22.20;71.50
62154;DHT22;48140;45.486;9.226;2022-10-16T17:18:20;22.20;71.90
62154;DHT22;48140;45.486;9.226;2022-10-16T17:20:46;22.00;72.40
62154;DHT22;48140;45.486;9.226;2022-10-16T17:23:12;22.00;72.80
62154;DHT22;48140;45.486;9.226;2022-10-16T17:25:38;22.00;73.00
62154;DHT22;48140;45.486;9.226;2022-10-16T17:28:04;21.90;73.70
62154;DHT22;48140;45.486;9.226;2022-10-16T17:30:29;21.80;73.70
62154;DHT22;48140;45.486;9.226;2022-10-16T17:32:55;21.80;73.90
62154;DHT22;48140;45.486;9.226;2022-10-16T17:35:20;21.80;75.00
62154;DHT22;48140;45.486;9.226;2022-10-16T17:37:46;21.80;75.10
62154;DHT22;48140;45.486;9.226;2022-10-16T17:40:12;21.70;75.70
62154;DHT22;48140;45.486;9.226;2022-10-16T17:42:37;21.70;76.00
62154;DHT22;48140;45.486;9.226;2022-10-16T17:45:03;21.70;76.30
62154;DHT22;48140;45.486;9.226;2022-10-16T17:47:28;21.70;76.60
62154;DHT22;48140;45.486;9.226;2022-10-16T17:49:54;21.60;77.00
62154;DHT22;48140;45.486;9.226;2022-10-16T17:52:21;21.60;77.30
62154;DHT22;48140;45.486;9.226;2022-10-16T17:54:48;21.60;77.40
62154;DHT22;48140;45.486;9.226;2022-10-16T17:57:14;21.60;78.90
62154;DHT22;48140;45.486;9.226;2022-10-16T17:59:39;21.60;79.30
62154;DHT22;48140;45.486;9.226;2022-10-16T18:02:05;21.50;78.70
62154;DHT22;48140;45.486;9.226;2022-10-16T18:04:31;21.50;79.90
62154;DHT22;48140;45.486;9.226;2022-10-16T18:06:56;21.50;80.10
62154;DHT22;48140;45.486;9.226;2022-10-16T18:09:24;21.50;79.50
62154;DHT22;48140;45.486;9.226;2022-10-16T18:11:50;21.50;79.30
62154;DHT22;48140;45.486;9.226;2022-10-16T18:14:23;21.40;78.70
62154;DHT22;48140;45.486;9.226;2022-10-16T18:16:49;21.40;79.20
62154;DHT22;48140;45.486;9.226;2022-10-16T18:19:16;21.30;79.30
62154;DHT22;48140;45.486;9.226;2022-10-16T18:21:42;21.30;79.60
62154;DHT22;48140;45.486;9.226;2022-10-16T18:24:07;21.20;79.70
62154;DHT22;48140;45.486;9.226;2022-10-16T18:26:33;21.20;80.20
62154;DHT22;48140;45.486;9.226;2022-10-16T18:28:59;21.20;80.50
62154;DHT22;48140;45.486;9.226;2022-10-16T18:31:26;21.20;80.60
62154;DHT22;48140;45.486;9.226;2022-10-16T18:33:52;21.10;80.40
62154;DHT22;48140;45.486;9.226;2022-10-16T19:52:07;20.20;86.50
62154;DHT22;48140;45.486;9.226;2022-10-16T19:54:32;20.20;86.70
62154;DHT22;48140;45.486;9.226;2022-10-16T20:02:10;20.20;87.40
62154;DHT22;48140;45.486;9.226;2022-10-16T20:09:42;20.00;88.00
62154;DHT22;48140;45.486;9.226;2022-10-16T20:12:07;20.10;88.20
62154;DHT22;48140;45.486;9.226;2022-10-16T20:14:33;20.00;88.40
62154;DHT22;48140;45.486;9.226;2022-10-16T20:16:58;20.00;88.60
62154;DHT22;48140;45.486;9.226;2022-10-16T20:19:24;19.90;89.70